createdAt,value
2023-03-15T00:00:13.528Z,99470.06
2023-03-15T00:02:42.629Z,99466.31
2023-03-15T00:05:16.540Z,99471.69
2023-03-15T00:07:44.839Z,99475.06
2023-03-15T00:10:13.355Z,99468.50
2023-03-15T00:12:43.674Z,99479.47
2023-03-15T00:15:15.882Z,99482.06
2023-03-15T00:17:45.857Z,99490.72
2023-03-15T00:20:18.575Z,99493.56
2023-03-15T00:22:47.123Z,99491.63
2023-03-15T00:25:15.451Z,99491.91
2023-03-15T00:27:43.798Z,99494.13
2023-03-15T00:30:12.610Z,99496.47
2023-03-15T00:32:40.987Z,99498.84
2023-03-15T00:35:11.100Z,99499.69
2023-03-15T00:37:39.826Z,99498.06
2023-03-15T00:40:08.765Z,99504.00
2023-03-15T00:42:37.094Z,99507.13
2023-03-15T00:45:06.317Z,99515.88
2023-03-15T00:47:34.671Z,99521.81
2023-03-15T00:50:03.002Z,99530.03
2023-03-15T00:52:36.955Z,99532.38
2023-03-15T00:55:06.069Z,99534.78
2023-03-15T00:57:37.717Z,99541.47
2023-03-15T01:00:06.864Z,99543.03
2023-03-15T01:02:35.215Z,99546.66
2023-03-15T01:05:03.542Z,99556.66
2023-03-15T01:07:34.491Z,99552.69
2023-03-15T01:10:07.861Z,99558.31
2023-03-15T01:12:36.856Z,99557.13
2023-03-15T01:15:07.775Z,99565.34
2023-03-15T01:17:36.253Z,99565.69
2023-03-15T01:20:06.450Z,99573.59
2023-03-15T01:22:34.982Z,99578.75
2023-03-15T01:25:03.348Z,99575.03
2023-03-15T01:27:31.676Z,99579.41
2023-03-15T01:30:00.037Z,99581.25
2023-03-15T01:32:29.085Z,99583.66
2023-03-15T01:34:58.239Z,99582.41
2023-03-15T01:37:27.572Z,99595.44
2023-03-15T01:39:55.911Z,99586.09
2023-03-15T01:42:24.326Z,99595.31
2023-03-15T01:45:01.000Z,99597.13
2023-03-15T01:47:29.902Z,99607.34
2023-03-15T01:50:12.408Z,99609.22
2023-03-15T01:52:43.989Z,99609.00
2023-03-15T01:55:17.899Z,99612.38
2023-03-15T01:57:53.380Z,99610.66
2023-03-15T02:00:22.429Z,99611.97
2023-03-15T02:03:02.020Z,99615.81
2023-03-15T02:05:36.661Z,99615.63
2023-03-15T02:08:08.573Z,99615.38
2023-03-15T02:10:44.956Z,99613.88
2023-03-15T02:13:18.225Z,99616.47
2023-03-15T02:15:50.370Z,99621.88
2023-03-15T02:18:18.780Z,99621.63
2023-03-15T02:21:05.481Z,99617.31
2023-03-15T02:23:34.150Z,99624.22
2023-03-15T02:26:28.715Z,99622.19
2023-03-15T02:28:57.418Z,99626.78
2023-03-15T02:31:25.881Z,99629.31
2023-03-15T02:33:58.765Z,99628.31
2023-03-15T02:36:32.933Z,99632.69
2023-03-15T02:39:02.146Z,99632.41
2023-03-15T02:41:40.187Z,99616.06
2023-03-15T02:44:17.806Z,99619.34
2023-03-15T02:46:49.388Z,99623.94
2023-03-15T02:49:20.049Z,99621.13
2023-03-15T02:51:48.377Z,99615.97
2023-03-15T02:54:16.782Z,99620.03
2023-03-15T02:56:45.131Z,99616.19
2023-03-15T02:59:13.774Z,99612.28
2023-03-15T03:01:42.306Z,99611.22
2023-03-15T03:04:10.956Z,99610.94
2023-03-15T03:06:39.453Z,99617.81
2023-03-15T03:09:07.899Z,99611.34
2023-03-15T03:11:36.230Z,99609.50
2023-03-15T03:14:04.999Z,99605.09
2023-03-15T03:16:33.447Z,99601.72
2023-03-15T03:19:02.720Z,99597.06
2023-03-15T03:21:31.084Z,99605.16
2023-03-15T03:23:59.395Z,99601.28
2023-03-15T03:26:29.103Z,99599.19
2023-03-15T03:28:57.507Z,99602.19
2023-03-15T03:31:27.879Z,99595.97
2023-03-15T03:33:58.126Z,99594.84
2023-03-15T03:36:27.145Z,99592.25
2023-03-15T03:38:55.652Z,99584.72
2023-03-15T03:41:24.248Z,99577.19
2023-03-15T03:43:52.588Z,99580.22
2023-03-15T03:46:21.280Z,99571.19
2023-03-15T03:48:49.668Z,99578.28
2023-03-15T03:51:18.044Z,99564.88
2023-03-15T03:53:46.379Z,99565.56
2023-03-15T03:56:14.710Z,99564.44
2023-03-15T03:58:43.072Z,99555.38
2023-03-15T04:01:12.636Z,99553.75
2023-03-15T04:03:40.991Z,99560.06
2023-03-15T04:06:09.759Z,99551.78
2023-03-15T04:08:39.265Z,99548.91
2023-03-15T04:11:08.076Z,99544.69
2023-03-15T04:13:36.437Z,99546.44
2023-03-15T04:16:04.828Z,99544.31
2023-03-15T04:18:33.186Z,99540.44
2023-03-15T04:21:01.536Z,99532.63
2023-03-15T04:23:29.878Z,99526.34
2023-03-15T04:25:59.111Z,99522.34
2023-03-15T04:28:27.436Z,99519.69
2023-03-15T04:30:59.674Z,99510.34
2023-03-15T04:33:28.088Z,99506.16
2023-03-15T04:35:56.561Z,99504.19
2023-03-15T04:38:27.760Z,99500.31
2023-03-15T04:40:56.319Z,99493.03
2023-03-15T04:43:25.339Z,99487.50
2023-03-15T04:45:53.724Z,99490.22
2023-03-15T04:48:22.052Z,99484.16
2023-03-15T04:50:50.414Z,99474.78
2023-03-15T04:53:18.717Z,99466.19
2023-03-15T04:55:47.189Z,99464.56
2023-03-15T04:58:15.640Z,99455.00
2023-03-15T05:00:44.176Z,99456.97
2023-03-15T05:03:12.841Z,99445.34
2023-03-15T05:05:41.174Z,99446.31
2023-03-15T05:08:09.766Z,99440.53
2023-03-15T05:10:38.235Z,99437.59
2023-03-15T05:13:06.567Z,99431.81
2023-03-15T05:15:34.920Z,99421.13
2023-03-15T05:18:03.310Z,99416.47
2023-03-15T05:20:31.684Z,99398.81
2023-03-15T05:23:00.784Z,99402.06
2023-03-15T05:25:29.116Z,99388.53
2023-03-15T05:27:57.671Z,99393.88
2023-03-15T05:30:26.025Z,99391.69
2023-03-15T05:32:54.373Z,99376.44
2023-03-15T05:35:25.002Z,99373.47
2023-03-15T05:37:53.949Z,99363.09
2023-03-15T05:40:22.366Z,99365.78
2023-03-15T05:42:50.676Z,99368.47
2023-03-15T05:45:19.048Z,99361.13
2023-03-15T05:47:47.348Z,99360.81
2023-03-15T05:50:15.680Z,99347.81
2023-03-15T05:52:44.279Z,99341.25
2023-03-15T05:55:12.601Z,99333.91
2023-03-15T05:57:41.200Z,99329.44
2023-03-15T06:00:10.992Z,99329.31
2023-03-15T06:02:39.314Z,99329.72
2023-03-15T06:05:08.099Z,99320.09
2023-03-15T06:07:36.409Z,99319.53
2023-03-15T06:10:05.303Z,99320.28
2023-03-15T06:12:33.725Z,99306.34
2023-03-15T06:15:02.038Z,99303.34
2023-03-15T06:17:30.352Z,99293.72
2023-03-15T06:19:58.714Z,99298.69
2023-03-15T06:22:27.005Z,99293.22
2023-03-15T06:24:55.404Z,99283.41
2023-03-15T06:27:23.763Z,99285.47
2023-03-15T06:29:52.196Z,99280.56
2023-03-15T06:32:20.644Z,99265.28
2023-03-15T06:34:48.979Z,99257.94
2023-03-15T06:37:28.967Z,99261.31
2023-03-15T06:40:01.472Z,99261.53
2023-03-15T06:42:29.782Z,99250.56
2023-03-15T06:44:58.168Z,99250.00
2023-03-15T06:47:26.598Z,99245.28
2023-03-15T06:49:56.766Z,99242.13
2023-03-15T06:52:25.549Z,99231.94
2023-03-15T06:54:54.076Z,99227.44
2023-03-15T06:57:22.403Z,99224.97
2023-03-15T06:59:50.924Z,99220.25
2023-03-15T07:02:25.476Z,99219.13
2023-03-15T07:04:54.025Z,99216.66
2023-03-15T07:07:22.442Z,99209.69
2023-03-15T07:09:50.756Z,99209.69
2023-03-15T07:12:19.077Z,99201.75
2023-03-15T07:14:47.640Z,99195.50
2023-03-15T07:17:15.924Z,99190.78
2023-03-15T07:19:55.416Z,99186.63
2023-03-15T07:22:25.251Z,99192.66
2023-03-15T07:24:53.773Z,99184.38
2023-03-15T07:27:22.110Z,99176.81
2023-03-15T07:29:50.556Z,99184.94
2023-03-15T07:32:19.055Z,99173.03
2023-03-15T07:34:47.455Z,99168.13
2023-03-15T07:37:15.830Z,99164.34
2023-03-15T07:39:44.299Z,99159.81
2023-03-15T07:42:12.834Z,99161.13
2023-03-15T07:44:41.150Z,99157.72
2023-03-15T07:47:09.620Z,99154.91
2023-03-15T07:49:37.939Z,99157.72
2023-03-15T07:52:06.421Z,99146.41
2023-03-15T07:54:35.370Z,99146.41
2023-03-15T07:57:03.716Z,99148.28
2023-03-15T07:59:32.574Z,99151.69
2023-03-15T08:02:02.795Z,99148.09
2023-03-15T08:04:31.751Z,99149.22
2023-03-15T08:07:00.156Z,99149.97
2023-03-15T08:09:28.581Z,99144.88
2023-03-15T08:11:56.902Z,99146.94
2023-03-15T08:14:25.582Z,99139.78
2023-03-15T08:16:53.995Z,99138.81
2023-03-15T08:19:23.180Z,99137.31
2023-03-15T08:21:54.736Z,99140.72
2023-03-15T08:24:23.164Z,99133.34
2023-03-15T08:26:52.145Z,99141.09
2023-03-15T08:29:20.479Z,99128.81
2023-03-15T08:31:49.106Z,99131.28
2023-03-15T08:34:17.512Z,99132.59
2023-03-15T08:36:48.589Z,99121.09
2023-03-15T08:39:16.974Z,99124.47
2023-03-15T08:41:46.528Z,99119.38
2023-03-15T08:44:14.942Z,99119.94
2023-03-15T08:46:43.291Z,99127.47
2023-03-15T08:49:11.733Z,99125.00
2023-03-15T08:51:40.114Z,99122.16
2023-03-15T08:54:08.483Z,99119.91
2023-03-15T08:56:37.045Z,99130.47
2023-03-15T08:59:06.130Z,99124.63
2023-03-15T09:01:35.772Z,99123.69
2023-03-15T09:04:05.207Z,99125.00
2023-03-15T09:06:33.587Z,99120.66
2023-03-15T09:09:02.031Z,99124.06
2023-03-15T09:11:30.351Z,99123.31
2023-03-15T09:13:58.663Z,99123.09
2023-03-15T09:16:27.518Z,99120.09
2023-03-15T09:18:55.858Z,99119.72
2023-03-15T09:21:25.693Z,99121.38
2023-03-15T09:23:54.191Z,99122.50
2023-03-15T09:26:22.883Z,99117.22
2023-03-15T09:28:51.411Z,99119.09
2023-03-15T09:31:20.171Z,99128.16
2023-03-15T09:33:48.603Z,99133.63
2023-03-15T09:36:16.986Z,99134.00
2023-03-15T09:38:45.999Z,99132.31
2023-03-15T09:41:45.011Z,99127.56
2023-03-15T09:44:25.113Z,99134.91
2023-03-15T09:47:19.740Z,99138.06
2023-03-15T09:49:58.606Z,99134.66
2023-03-15T09:53:04.161Z,99141.81
2023-03-15T09:55:32.529Z,99142.72
2023-03-15T09:58:06.332Z,99142.13
2023-03-15T10:00:42.680Z,99143.59
2023-03-15T10:03:22.740Z,99142.25
2023-03-15T10:05:57.823Z,99148.84
2023-03-15T10:08:26.657Z,99151.03
2023-03-15T10:11:24.770Z,99154.03
2023-03-15T10:14:17.675Z,99157.56
2023-03-15T10:16:49.138Z,99151.88
2023-03-15T10:19:35.414Z,99146.13
2023-03-15T10:22:29.780Z,99158.34
2023-03-15T10:25:05.040Z,99157.97
2023-03-15T10:27:47.208Z,99155.09
2023-03-15T10:30:27.950Z,99152.63
2023-03-15T10:33:01.640Z,99163.50
2023-03-15T10:35:30.506Z,99160.81
2023-03-15T10:37:59.532Z,99166.06
2023-03-15T10:40:44.155Z,99165.97
2023-03-15T10:43:40.702Z,99176.09
2023-03-15T10:46:14.979Z,99168.28
2023-03-15T10:49:17.795Z,99172.56
2023-03-15T10:51:48.763Z,99179.66
2023-03-15T10:54:25.983Z,99168.31
2023-03-15T10:57:00.131Z,99177.66
2023-03-15T10:59:31.355Z,99182.66
2023-03-15T11:02:17.773Z,99187.47
2023-03-15T11:05:13.310Z,99174.56
2023-03-15T11:07:59.743Z,99181.41
2023-03-15T11:10:34.676Z,99184.91
2023-03-15T11:13:14.686Z,99186.13
2023-03-15T11:15:55.109Z,99193.97
2023-03-15T11:18:31.933Z,99189.72
2023-03-15T11:21:03.046Z,99189.63
2023-03-15T11:23:36.896Z,99183.34
2023-03-15T11:26:05.950Z,99190.38
2023-03-15T11:28:38.366Z,99194.56
2023-03-15T11:31:07.469Z,99195.22
2023-03-15T11:33:59.534Z,99188.19
2023-03-15T11:36:35.312Z,99202.19
2023-03-15T11:39:07.401Z,99202.25
2023-03-15T11:41:38.822Z,99212.88
2023-03-15T11:44:26.592Z,99215.03
2023-03-15T11:47:04.914Z,99214.38
2023-03-15T11:49:53.030Z,99214.97
2023-03-15T11:52:24.423Z,99212.25
2023-03-15T11:54:56.553Z,99208.78
2023-03-15T11:57:33.674Z,99213.97
2023-03-15T12:00:27.838Z,99209.19
2023-03-15T12:03:02.873Z,99215.66
2023-03-15T12:05:53.185Z,99217.81
2023-03-15T12:08:27.999Z,99222.00
2023-03-15T12:10:56.399Z,99223.41
2023-03-15T12:13:29.211Z,99229.66
2023-03-15T12:15:57.804Z,99243.53
2023-03-15T12:18:41.292Z,99235.69
2023-03-15T12:21:14.391Z,99235.78
2023-03-15T12:24:02.518Z,99244.53
2023-03-15T12:26:43.085Z,99251.72
2023-03-15T12:29:27.153Z,99251.28
2023-03-15T12:32:03.656Z,99251.06
2023-03-15T12:34:56.167Z,99255.69
2023-03-15T12:37:32.560Z,99257.28
2023-03-15T12:40:26.825Z,99259.41
2023-03-15T12:42:58.354Z,99265.88
2023-03-15T12:45:37.551Z,99270.78
2023-03-15T12:48:07.567Z,99277.75
2023-03-15T12:50:48.942Z,99286.75
2023-03-15T12:53:32.323Z,99290.94
2023-03-15T12:56:20.437Z,99294.53
2023-03-15T12:58:54.520Z,99297.94
2023-03-15T13:01:26.633Z,99301.03
2023-03-15T13:04:00.761Z,99305.44
2023-03-15T13:07:04.035Z,99304.44
2023-03-15T13:09:54.759Z,99320.31
2023-03-15T13:12:30.770Z,99322.13
2023-03-15T13:15:24.671Z,99331.06
2023-03-15T13:18:05.495Z,99331.34
2023-03-15T13:20:52.870Z,99340.06
2023-03-15T13:23:32.870Z,99346.72
2023-03-15T13:26:09.963Z,99350.56
2023-03-15T13:28:43.352Z,99360.06
2023-03-15T13:31:22.710Z,99364.44
2023-03-15T13:33:59.125Z,99361.16
2023-03-15T13:36:43.297Z,99370.31
2023-03-15T13:39:27.045Z,99367.56
2023-03-15T13:42:04.068Z,99380.34
2023-03-15T13:44:33.203Z,99379.13
2023-03-15T13:47:01.711Z,99384.25
2023-03-15T13:49:34.832Z,99383.00
2023-03-15T13:52:13.116Z,99389.66
2023-03-15T13:54:43.190Z,99387.84
2023-03-15T13:57:16.080Z,99392.47
2023-03-15T14:00:03.319Z,99394.78
2023-03-15T14:02:49.714Z,99392.78
2023-03-15T14:05:28.657Z,99397.91
2023-03-15T14:08:04.541Z,99393.09
2023-03-15T14:10:41.173Z,99394.88
2023-03-15T14:13:29.004Z,99402.78
2023-03-15T14:16:00.346Z,99404.06
2023-03-15T14:18:37.306Z,99408.66
2023-03-15T14:21:17.187Z,99397.69
2023-03-15T14:23:48.019Z,99403.56
2023-03-15T14:26:23.790Z,99405.13
2023-03-15T14:29:02.507Z,99406.41
2023-03-15T14:31:35.524Z,99415.09
2023-03-15T14:34:17.182Z,99413.31
2023-03-15T14:36:47.071Z,99407.94
2023-03-15T14:39:21.314Z,99413.31
2023-03-15T14:41:49.626Z,99411.53
2023-03-15T14:44:18.080Z,99416.63
2023-03-15T14:46:46.408Z,99409.25
2023-03-15T14:49:32.697Z,99416.91
2023-03-15T14:52:04.052Z,99415.38
2023-03-15T14:54:34.712Z,99416.66
2023-03-15T14:57:03.025Z,99419.72
2023-03-15T14:59:31.378Z,99422.28
2023-03-15T15:02:01.908Z,99421.78
2023-03-15T15:04:35.121Z,99427.09
2023-03-15T15:07:04.066Z,99419.22
2023-03-15T15:09:32.646Z,99433.75
2023-03-15T15:12:00.978Z,99420.25
2023-03-15T15:14:29.322Z,99419.22
2023-03-15T15:16:57.883Z,99421.78
2023-03-15T15:19:26.235Z,99420.75
2023-03-15T15:21:54.559Z,99425.34
2023-03-15T15:24:26.860Z,99422.31
2023-03-15T15:26:55.723Z,99413.13
2023-03-15T15:29:26.165Z,99419.25
2023-03-15T15:31:54.524Z,99412.88
2023-03-15T15:34:22.933Z,99407.50
2023-03-15T15:36:51.284Z,99412.09
2023-03-15T15:39:25.006Z,99415.13
2023-03-15T15:41:53.347Z,99406.47
2023-03-15T15:44:25.848Z,99411.81
2023-03-15T15:46:54.624Z,99414.38
2023-03-15T15:49:22.923Z,99399.84
2023-03-15T15:51:51.790Z,99397.56
2023-03-15T15:54:24.250Z,99398.59
2023-03-15T15:56:55.528Z,99408.78
2023-03-15T15:59:26.528Z,99409.78
2023-03-15T16:02:01.768Z,99409.53
2023-03-15T16:04:31.664Z,99414.13
2023-03-15T16:07:02.970Z,99410.28
2023-03-15T16:09:36.205Z,99410.03
2023-03-15T16:12:12.249Z,99408.25
2023-03-15T16:14:41.026Z,99404.94
2023-03-15T16:17:28.121Z,99411.56
2023-03-15T16:19:56.578Z,99414.09
2023-03-15T16:22:26.023Z,99412.31
2023-03-15T16:24:58.184Z,99414.59
2023-03-15T16:27:28.747Z,99415.09
2023-03-15T16:29:59.288Z,99411.25
2023-03-15T16:32:41.386Z,99411.75
2023-03-15T16:35:17.404Z,99404.63
2023-03-15T16:37:47.413Z,99411.25
2023-03-15T16:40:36.545Z,99411.75
2023-03-15T16:43:07.208Z,99411.97
2023-03-15T16:45:35.771Z,99404.09
2023-03-15T16:48:04.733Z,99408.66
2023-03-15T16:50:34.423Z,99404.34
2023-03-15T16:53:06.717Z,99401.53
2023-03-15T16:55:35.336Z,99405.09
2023-03-15T16:58:12.310Z,99402.31
2023-03-15T17:00:40.621Z,99409.19
2023-03-15T17:03:08.950Z,99402.81
2023-03-15T17:05:37.373Z,99401.28
2023-03-15T17:08:05.861Z,99391.34
2023-03-15T17:10:34.378Z,99399.75
2023-03-15T17:13:03.636Z,99395.44
2023-03-15T17:15:32.222Z,99393.91
2023-03-15T17:18:01.343Z,99386.00
2023-03-15T17:20:30.601Z,99379.66
2023-03-15T17:23:04.090Z,99381.69
2023-03-15T17:25:34.638Z,99373.28
2023-03-15T17:28:02.985Z,99364.88
2023-03-15T17:30:34.207Z,99365.66
2023-03-15T17:33:03.437Z,99361.31
2023-03-15T17:35:36.047Z,99355.72
2023-03-15T17:38:07.610Z,99354.94
2023-03-15T17:40:37.515Z,99345.78
2023-03-15T17:43:06.175Z,99347.81
2023-03-15T17:45:35.691Z,99341.19
2023-03-15T17:48:04.180Z,99350.34
2023-03-15T17:50:34.766Z,99350.84
2023-03-15T17:53:22.012Z,99347.03
2023-03-15T17:55:50.393Z,99343.97
2023-03-15T17:58:24.637Z,99350.84
2023-03-15T18:00:55.584Z,99340.16
2023-03-15T18:03:25.000Z,99337.34
2023-03-15T18:05:53.714Z,99331.00
2023-03-15T18:08:22.569Z,99335.31
2023-03-15T18:10:52.679Z,99344.47
2023-03-15T18:13:22.393Z,99333.78
2023-03-15T18:15:52.120Z,99327.44
2023-03-15T18:18:21.146Z,99328.69
2023-03-15T18:20:50.534Z,99325.66
2023-03-15T18:23:19.391Z,99323.88
2023-03-15T18:25:47.745Z,99322.06
2023-03-15T18:28:16.372Z,99322.59
2023-03-15T18:30:45.719Z,99318.25
2023-03-15T18:33:16.519Z,99320.78
2023-03-15T18:35:45.257Z,99319.28
2023-03-15T18:38:13.579Z,99311.38
2023-03-15T18:40:41.912Z,99311.84
2023-03-15T18:43:15.120Z,99320.00
2023-03-15T18:45:43.673Z,99314.41
2023-03-15T18:48:12.006Z,99316.44
2023-03-15T18:50:40.368Z,99312.38
2023-03-15T18:53:09.079Z,99314.41
2023-03-15T18:55:37.785Z,99313.13
2023-03-15T18:58:09.851Z,99306.25
2023-03-15T19:00:38.714Z,99309.84
2023-03-15T19:03:07.738Z,99307.06
2023-03-15T19:05:39.166Z,99303.47
2023-03-15T19:08:07.763Z,99302.22
2023-03-15T19:10:36.124Z,99304.25
2023-03-15T19:13:04.985Z,99304.72
2023-03-15T19:15:33.486Z,99302.44
2023-03-15T19:18:02.549Z,99309.06
2023-03-15T19:20:30.886Z,99306.00
2023-03-15T19:22:59.251Z,99310.56
2023-03-15T19:25:27.644Z,99310.31
2023-03-15T19:27:55.975Z,99316.41
2023-03-15T19:30:24.799Z,99315.66
2023-03-15T19:32:53.327Z,99316.91
2023-03-15T19:35:22.594Z,99309.03
2023-03-15T19:37:51.389Z,99309.53
2023-03-15T19:40:21.080Z,99301.16
2023-03-15T19:42:52.301Z,99306.47
2023-03-15T19:45:20.872Z,99302.16
2023-03-15T19:47:49.269Z,99305.19
2023-03-15T19:50:18.212Z,99305.69
2023-03-15T19:52:49.432Z,99303.84
2023-03-15T19:55:20.555Z,99306.91
2023-03-15T19:57:49.361Z,99296.72
2023-03-15T20:00:20.007Z,99299.25
2023-03-15T20:02:48.636Z,99303.06
2023-03-15T20:05:20.139Z,99300.78
2023-03-15T20:07:51.546Z,99300.50
2023-03-15T20:10:20.897Z,99303.03
2023-03-15T20:12:49.560Z,99303.53
2023-03-15T20:15:20.268Z,99300.50
2023-03-15T20:17:48.592Z,99302.25
2023-03-15T20:20:17.172Z,99305.06
2023-03-15T20:22:46.515Z,99301.97
2023-03-15T20:25:16.726Z,99297.66
2023-03-15T20:27:45.390Z,99302.97
2023-03-15T20:30:16.213Z,99306.28
2023-03-15T20:32:45.035Z,99303.97
2023-03-15T20:35:13.510Z,99312.88
2023-03-15T20:37:43.284Z,99303.19
2023-03-15T20:40:15.328Z,99311.31
2023-03-15T20:42:44.681Z,99317.16
2023-03-15T20:45:14.597Z,99324.00
2023-03-15T20:47:43.282Z,99326.53
2023-03-15T20:50:14.064Z,99325.50
2023-03-15T20:52:43.645Z,99320.91
2023-03-15T20:55:16.144Z,99328.50
2023-03-15T20:57:44.780Z,99329.78
2023-03-15T21:00:19.039Z,99329.25
2023-03-15T21:02:48.872Z,99346.00
2023-03-15T21:05:18.260Z,99344.97
2023-03-15T21:07:47.166Z,99349.03
2023-03-15T21:10:15.747Z,99353.59
2023-03-15T21:12:47.300Z,99349.28
2023-03-15T21:15:19.810Z,99349.75
2023-03-15T21:17:53.921Z,99355.34
2023-03-15T21:20:22.349Z,99360.94
2023-03-15T21:22:50.723Z,99359.41
2023-03-15T21:25:19.198Z,99357.88
2023-03-15T21:27:47.844Z,99352.78
2023-03-15T21:30:16.315Z,99353.28
2023-03-15T21:32:45.623Z,99358.13
2023-03-15T21:35:14.844Z,99354.25
2023-03-15T21:37:43.124Z,99356.28
2023-03-15T21:40:14.028Z,99359.56
2023-03-15T21:42:44.435Z,99360.06
2023-03-15T21:45:13.226Z,99364.59
2023-03-15T21:47:41.707Z,99371.94
2023-03-15T21:50:12.626Z,99379.56
2023-03-15T21:52:41.005Z,99382.84
2023-03-15T21:55:10.339Z,99384.88
2023-03-15T21:57:38.697Z,99388.44
2023-03-15T22:00:12.613Z,99386.13
2023-03-15T22:02:41.058Z,99391.72
2023-03-15T22:05:10.488Z,99397.31
2023-03-15T22:07:39.551Z,99399.84
2023-03-15T22:10:10.649Z,99396.53
2023-03-15T22:12:39.638Z,99399.84
2023-03-15T22:15:08.627Z,99401.88
2023-03-15T22:17:37.648Z,99419.88
2023-03-15T22:20:19.320Z,99409.69
2023-03-15T22:22:50.007Z,99410.19
2023-03-15T22:25:18.728Z,99418.31
2023-03-15T22:27:47.042Z,99427.19
2023-03-15T22:30:16.300Z,99435.78
2023-03-15T22:32:45.172Z,99444.66
2023-03-15T22:35:15.115Z,99449.97
2023-03-15T22:37:44.082Z,99448.91
2023-03-15T22:40:17.713Z,99448.44
2023-03-15T22:42:47.920Z,99449.66
2023-03-15T22:45:16.483Z,99453.53
2023-03-15T22:47:44.985Z,99459.09
2023-03-15T22:50:14.407Z,99464.69
2023-03-15T22:52:43.097Z,99463.91
2023-03-15T22:55:12.556Z,99469.50
2023-03-15T22:57:41.294Z,99479.16
2023-03-15T23:00:14.699Z,99487.97
2023-03-15T23:02:46.747Z,99487.22
2023-03-15T23:05:15.601Z,99484.16
2023-03-15T23:07:44.245Z,99484.66
2023-03-15T23:10:13.368Z,99489.47
2023-03-15T23:12:42.088Z,99508.72
2023-03-15T23:15:11.328Z,99512.78
2023-03-15T23:17:39.728Z,99530.28
2023-03-15T23:20:08.700Z,99547.06
2023-03-15T23:22:37.001Z,99551.09
2023-03-15T23:25:05.613Z,99541.97
2023-03-15T23:27:33.994Z,99549.56
2023-03-15T23:30:02.354Z,99553.63
2023-03-15T23:32:32.025Z,99560.44
2023-03-15T23:35:00.319Z,99570.84
2023-03-15T23:37:29.542Z,99573.38
2023-03-15T23:39:57.907Z,99579.72
2023-03-15T23:42:26.573Z,99590.88
2023-03-15T23:44:56.293Z,99584.81
2023-03-15T23:47:25.906Z,99594.72
2023-03-15T23:49:54.199Z,99604.16
2023-03-15T23:52:25.689Z,99618.09
2023-03-15T23:54:54.836Z,99612.03
2023-03-15T23:57:23.387Z,99622.22
2023-03-15T23:59:52.010Z,99619.72
